sensor_id;sensor_type;location;lat;lon;timestamp;pressure;altitude;pressure_sealevel;temperature;humidity
71424;BME280;59240;51.370;-0.486;2023-01-01T00:00:13;100258.13;;;12.24;98.56
71424;BME280;59240;51.370;-0.486;2023-01-01T00:02:39;100283.59;;;12.41;98.77
71424;BME280;59240;51.370;-0.486;2023-01-01T00:05:06;100259.88;;;12.24;97.38
71424;BME280;59240;51.370;-0.486;2023-01-01T00:07:33;100292.25;;;12.43;98.26
71424;BME280;59240;51.370;-0.486;2023-01-01T00:10:00;100279.16;;;12.20;100.00
71424;BME280;59240;51.370;-0.486;2023-01-01T00:12:45;100315.72;;;12.20;98.75
71424;BME280;59240;51.370;-0.486;2023-01-01T00:15:11;100323.13;;;12.32;98.97
71424;BME280;59240;51.370;-0.486;2023-01-01T00:17:38;100318.88;;;12.29;98.09
71424;BME280;59240;51.370;-0.486;2023-01-01T00:20:05;100334.56;;;12.28;98.03
71424;BME280;59240;51.370;-0.486;2023-01-01T00:22:33;100335.56;;;12.25;98.71
71424;BME280;59240;51.370;-0.486;2023-01-01T00:25:19;100329.69;;;12.19;97.71
71424;BME280;59240;51.370;-0.486;2023-01-01T00:27:46;100303.69;;;12.16;97.55
71424;BME280;59240;51.370;-0.486;2023-01-01T00:30:12;100324.47;;;12.19;98.13
71424;BME280;59240;51.370;-0.486;2023-01-01T00:32:39;100322.91;;;12.13;97.68
71424;BME280;59240;51.370;-0.486;2023-01-01T00:35:06;100333.56;;;12.09;100.00
71424;BME280;59240;51.370;-0.486;2023-01-01T00:37:32;100327.69;;;12.02;99.00
71424;BME280;59240;51.370;-0.486;2023-01-01T00:39:59;100334.44;;;12.08;97.78
71424;BME280;59240;51.370;-0.486;2023-01-01T00:42:25;100342.50;;;12.01;96.75
71424;BME280;59240;51.370;-0.486;2023-01-01T00:44:52;100328.13;;;11.90;100.00
71424;BME280;59240;51.370;-0.486;2023-01-01T00:47:18;100346.13;;;11.97;96.58
71424;BME280;59240;51.370;-0.486;2023-01-01T00:49:45;100349.72;;;11.93;96.49
71424;BME280;59240;51.370;-0.486;2023-01-01T00:52:11;100345.47;;;11.91;98.23
71424;BME280;59240;51.370;-0.486;2023-01-01T00:54:38;100368.91;;;11.92;98.58
71424;BME280;59240;51.370;-0.486;2023-01-01T00:57:04;100362.97;;;11.89;97.92
71424;BME280;59240;51.370;-0.486;2023-01-01T00:59:31;100339.84;;;11.76;95.86
71424;BME280;59240;51.370;-0.486;2023-01-01T01:01:58;100377.00;;;11.85;96.77
71424;BME280;59240;51.370;-0.486;2023-01-01T01:04:24;100380.69;;;11.77;97.09
71424;BME280;59240;51.370;-0.486;2023-01-01T01:06:51;100391.13;;;11.77;95.90
71424;BME280;59240;51.370;-0.486;2023-01-01T01:09:17;100387.91;;;11.69;94.94
71424;BME280;59240;51.370;-0.486;2023-01-01T01:11:44;100390.38;;;11.74;95.00
71424;BME280;59240;51.370;-0.486;2023-01-01T01:14:10;100383.56;;;11.70;96.85
71424;BME280;59240;51.370;-0.486;2023-01-01T01:16:37;100387.06;;;11.69;95.15
71424;BME280;59240;51.370;-0.486;2023-01-01T01:19:04;100397.50;;;11.69;94.49
71424;BME280;59240;51.370;-0.486;2023-01-01T01:21:32;100401.75;;;11.71;96.96
71424;BME280;59240;51.370;-0.486;2023-01-01T01:24:01;100398.34;;;11.69;95.42
71424;BME280;59240;51.370;-0.486;2023-01-01T01:26:30;100406.91;;;11.74;96.90
71424;BME280;59240;51.370;-0.486;2023-01-01T01:28:58;100413.06;;;11.72;97.07
71424;BME280;59240;51.370;-0.486;2023-01-01T01:31:27;100411.47;;;11.68;95.07
71424;BME280;59240;51.370;-0.486;2023-01-01T01:33:54;100420.09;;;11.70;94.87
71424;BME280;59240;51.370;-0.486;2023-01-01T01:36:23;100424.59;;;11.65;95.46
71424;BME280;59240;51.370;-0.486;2023-01-01T01:38:50;100430.66;;;11.65;97.42
71424;BME280;59240;51.370;-0.486;2023-01-01T01:41:19;100416.88;;;11.62;95.69
71424;BME280;59240;51.370;-0.486;2023-01-01T01:43:59;100435.13;;;11.62;99.77
71424;BME280;59240;51.370;-0.486;2023-01-01T01:46:43;100431.75;;;11.58;95.87
71424;BME280;59240;51.370;-0.486;2023-01-01T01:49:26;100431.09;;;11.51;96.70
71424;BME280;59240;51.370;-0.486;2023-01-01T01:51:54;100447.47;;;11.57;95.41
71424;BME280;59240;51.370;-0.486;2023-01-01T01:54:23;100448.38;;;11.56;95.32
71424;BME280;59240;51.370;-0.486;2023-01-01T01:56:58;100452.88;;;11.50;97.58
71424;BME280;59240;51.370;-0.486;2023-01-01T01:59:31;100456.50;;;11.45;96.61
71424;BME280;59240;51.370;-0.486;2023-01-01T02:01:59;100459.09;;;11.46;95.36
71424;BME280;59240;51.370;-0.486;2023-01-01T02:04:26;100465.97;;;11.49;94.57
71424;BME280;59240;51.370;-0.486;2023-01-01T02:06:54;100477.38;;;11.46;95.80
71424;BME280;59240;51.370;-0.486;2023-01-01T02:09:21;100446.47;;;11.33;96.07
71424;BME280;59240;51.370;-0.486;2023-01-01T02:11:47;100481.75;;;11.44;95.08
71424;BME280;59240;51.370;-0.486;2023-01-01T02:14:14;100477.44;;;11.43;93.96
71424;BME280;59240;51.370;-0.486;2023-01-01T02:16:55;100469.28;;;11.26;96.46
71424;BME280;59240;51.370;-0.486;2023-01-01T02:22:23;100484.81;;;11.29;98.88
71424;BME280;59240;51.370;-0.486;2023-01-01T02:30:07;100487.59;;;11.23;93.97
71424;BME280;59240;51.370;-0.486;2023-01-01T02:33:07;100502.41;;;11.22;100.00
71424;BME280;59240;51.370;-0.486;2023-01-01T02:35:40;100504.31;;;11.16;92.81
71424;BME280;59240;51.370;-0.486;2023-01-01T02:38:12;100485.41;;;11.09;95.94
71424;BME280;59240;51.370;-0.486;2023-01-01T02:40:45;100510.44;;;11.15;93.41
71424;BME280;59240;51.370;-0.486;2023-01-01T02:43:13;100506.13;;;11.14;92.79
71424;BME280;59240;51.370;-0.486;2023-01-01T02:45:43;100517.47;;;11.11;92.47
71424;BME280;59240;51.370;-0.486;2023-01-01T02:54:10;100526.25;;;11.09;97.05
71424;BME280;59240;51.370;-0.486;2023-01-01T03:05:30;100537.00;;;10.96;94.21
71424;BME280;59240;51.370;-0.486;2023-01-01T03:08:07;100536.06;;;11.01;97.30
71424;BME280;59240;51.370;-0.486;2023-01-01T03:10:44;100532.66;;;10.97;91.98
71424;BME280;59240;51.370;-0.486;2023-01-01T03:13:52;100535.41;;;10.92;92.12
71424;BME280;59240;51.370;-0.486;2023-01-01T03:19:10;100545.75;;;10.95;97.00
71424;BME280;59240;51.370;-0.486;2023-01-01T03:21:47;100531.97;;;10.90;94.59
71424;BME280;59240;51.370;-0.486;2023-01-01T03:24:24;100548.47;;;10.91;96.67
71424;BME280;59240;51.370;-0.486;2023-01-01T03:26:55;100544.19;;;10.88;94.58
71424;BME280;59240;51.370;-0.486;2023-01-01T03:29:27;100546.06;;;10.83;95.43
71424;BME280;59240;51.370;-0.486;2023-01-01T03:31:57;100546.06;;;10.83;94.47
71424;BME280;59240;51.370;-0.486;2023-01-01T03:34:36;100553.06;;;10.81;95.88
71424;BME280;59240;51.370;-0.486;2023-01-01T03:37:07;100554.88;;;10.79;93.79
71424;BME280;59240;51.370;-0.486;2023-01-01T03:39:42;100546.22;;;10.77;95.86
71424;BME280;59240;51.370;-0.486;2023-01-01T03:42:16;100548.03;;;10.75;96.21
71424;BME280;59240;51.370;-0.486;2023-01-01T03:44:48;100552.38;;;10.75;96.08
71424;BME280;59240;51.370;-0.486;2023-01-01T03:47:16;100545.47;;;10.74;94.96
71424;BME280;59240;51.370;-0.486;2023-01-01T03:49:44;100553.31;;;10.72;94.32
71424;BME280;59240;51.370;-0.486;2023-01-01T03:52:25;100544.06;;;10.60;99.89
71424;BME280;59240;51.370;-0.486;2023-01-01T03:55:49;100562.03;;;10.71;94.26
71424;BME280;59240;51.370;-0.486;2023-01-01T04:00:31;100542.72;;;10.46;96.16
71424;BME280;59240;51.370;-0.486;2023-01-01T04:03:08;100565.06;;;10.54;98.92
71424;BME280;59240;51.370;-0.486;2023-01-01T04:05:40;100583.94;;;10.64;94.88
71424;BME280;59240;51.370;-0.486;2023-01-01T04:08:09;100585.91;;;10.54;96.53
71424;BME280;59240;51.370;-0.486;2023-01-01T04:10:44;100601.44;;;10.59;94.57
71424;BME280;59240;51.370;-0.486;2023-01-01T04:13:11;100598.88;;;10.56;93.78
71424;BME280;59240;51.370;-0.486;2023-01-01T04:15:38;100610.03;;;10.61;93.87
71424;BME280;59240;51.370;-0.486;2023-01-01T04:18:05;100610.03;;;10.61;94.17
71424;BME280;59240;51.370;-0.486;2023-01-01T04:20:31;100611.03;;;10.57;94.87
71424;BME280;59240;51.370;-0.486;2023-01-01T04:22:59;100603.22;;;10.57;96.59
71424;BME280;59240;51.370;-0.486;2023-01-01T04:25:27;100610.19;;;10.55;94.50
71424;BME280;59240;51.370;-0.486;2023-01-01T04:27:54;100614.44;;;10.59;93.95
71424;BME280;59240;51.370;-0.486;2023-01-01T04:30:20;100624.00;;;10.58;92.60
71424;BME280;59240;51.370;-0.486;2023-01-01T04:32:47;100605.22;;;10.46;93.19
71424;BME280;59240;51.370;-0.486;2023-01-01T04:35:14;100626.66;;;10.57;94.73
71424;BME280;59240;51.370;-0.486;2023-01-01T04:37:42;100631.84;;;10.58;93.58
71424;BME280;59240;51.370;-0.486;2023-01-01T04:40:10;100631.88;;;10.55;94.35
71424;BME280;59240;51.370;-0.486;2023-01-01T04:42:37;100623.22;;;10.55;93.27
71424;BME280;59240;51.370;-0.486;2023-01-01T04:45:05;100618.00;;;10.55;93.67
71424;BME280;59240;51.370;-0.486;2023-01-01T04:47:32;100624.88;;;10.59;93.66
71424;BME280;59240;51.370;-0.486;2023-01-01T04:49:58;100621.47;;;10.57;92.47
71424;BME280;59240;51.370;-0.486;2023-01-01T04:52:25;100622.31;;;10.57;94.01
71424;BME280;59240;51.370;-0.486;2023-01-01T04:54:51;100633.59;;;10.58;94.09
71424;BME280;59240;51.370;-0.486;2023-01-01T04:57:18;100622.31;;;10.56;94.02
71424;BME280;59240;51.370;-0.486;2023-01-01T04:59:44;100626.56;;;10.60;91.74
71424;BME280;59240;51.370;-0.486;2023-01-01T05:02:11;100627.44;;;10.60;93.14
71424;BME280;59240;51.370;-0.486;2023-01-01T05:04:38;100623.06;;;10.61;92.87
71424;BME280;59240;51.370;-0.486;2023-01-01T05:07:04;100623.00;;;10.64;93.61
71424;BME280;59240;51.370;-0.486;2023-01-01T05:09:31;100628.03;;;10.70;93.76
71424;BME280;59240;51.370;-0.486;2023-01-01T05:11:57;100629.94;;;10.65;95.65
71424;BME280;59240;51.370;-0.486;2023-01-01T05:14:24;100631.88;;;10.57;93.15
71424;BME280;59240;51.370;-0.486;2023-01-01T05:16:51;100666.25;;;10.71;95.14
71424;BME280;59240;51.370;-0.486;2023-01-01T05:19:18;100642.13;;;10.63;93.55
71424;BME280;59240;51.370;-0.486;2023-01-01T05:21:44;100665.22;;;10.78;94.49
71424;BME280;59240;51.370;-0.486;2023-01-01T05:24:11;100653.88;;;10.79;92.69
71424;BME280;59240;51.370;-0.486;2023-01-01T05:26:41;100666.84;;;10.82;95.33
71424;BME280;59240;51.370;-0.486;2023-01-01T05:29:08;100659.09;;;10.79;92.20
71424;BME280;59240;51.370;-0.486;2023-01-01T05:31:43;100662.59;;;10.78;91.73
71424;BME280;59240;51.370;-0.486;2023-01-01T05:34:10;100677.09;;;10.88;93.92
71424;BME280;59240;51.370;-0.486;2023-01-01T05:36:37;100681.41;;;10.89;92.48
71424;BME280;59240;51.370;-0.486;2023-01-01T05:39:05;100660.81;;;10.80;94.84
71424;BME280;59240;51.370;-0.486;2023-01-01T05:41:33;100682.97;;;10.96;93.23
71424;BME280;59240;51.370;-0.486;2023-01-01T05:44:03;100669.22;;;10.91;90.01
71424;BME280;59240;51.370;-0.486;2023-01-01T05:46:31;100657.25;;;10.84;89.92
71424;BME280;59240;51.370;-0.486;2023-01-01T05:48:58;100680.31;;;11.00;91.90
71424;BME280;59240;51.370;-0.486;2023-01-01T05:51:27;100682.03;;;11.01;93.28
71424;BME280;59240;51.370;-0.486;2023-01-01T05:53:54;100689.72;;;11.05;93.09
71424;BME280;59240;51.370;-0.486;2023-01-01T05:56:21;100695.81;;;11.04;92.55
71424;BME280;59240;51.370;-0.486;2023-01-01T05:58:48;100684.47;;;11.07;91.89
71424;BME280;59240;51.370;-0.486;2023-01-01T06:01:16;100700.97;;;11.07;92.66
71424;BME280;59240;51.370;-0.486;2023-01-01T06:03:43;100697.47;;;11.08;91.95
71424;BME280;59240;51.370;-0.486;2023-01-01T06:06:13;100701.72;;;11.11;94.21
71424;BME280;59240;51.370;-0.486;2023-01-01T06:08:40;100705.25;;;11.10;92.28
71424;BME280;59240;51.370;-0.486;2023-01-01T06:11:10;100696.72;;;11.03;97.54
71424;BME280;59240;51.370;-0.486;2023-01-01T06:13:37;100711.59;;;11.00;91.94
71424;BME280;59240;51.370;-0.486;2023-01-01T06:16:04;100715.81;;;11.04;93.47
71424;BME280;59240;51.370;-0.486;2023-01-01T06:18:32;100717.69;;;10.99;92.53
71424;BME280;59240;51.370;-0.486;2023-01-01T06:21:08;100736.63;;;11.07;97.33
71424;BME280;59240;51.370;-0.486;2023-01-01T06:23:35;100702.50;;;10.80;91.56
71424;BME280;59240;51.370;-0.486;2023-01-01T06:26:04;100722.81;;;11.02;92.85
71424;BME280;59240;51.370;-0.486;2023-01-01T06:28:30;100705.88;;;10.85;92.45
71424;BME280;59240;51.370;-0.486;2023-01-01T06:31:01;100733.22;;;11.03;94.56
71424;BME280;59240;51.370;-0.486;2023-01-01T06:33:28;100731.50;;;11.02;92.97
71424;BME280;59240;51.370;-0.486;2023-01-01T06:35:55;100728.94;;;11.01;92.49
71424;BME280;59240;51.370;-0.486;2023-01-01T06:38:22;100721.47;;;10.87;94.65
71424;BME280;59240;51.370;-0.486;2023-01-01T06:40:59;100757.63;;;11.01;97.18
71424;BME280;59240;51.370;-0.486;2023-01-01T06:43:26;100762.81;;;11.01;93.63
71424;BME280;59240;51.370;-0.486;2023-01-01T06:48:34;100769.88;;;10.95;92.98
71424;BME280;59240;51.370;-0.486;2023-01-01T06:51:06;100769.97;;;10.92;94.86
71424;BME280;59240;51.370;-0.486;2023-01-01T06:53:33;100781.16;;;10.96;94.17
71424;BME280;59240;51.370;-0.486;2023-01-01T06:56:00;100788.09;;;10.97;92.74
71424;BME280;59240;51.370;-0.486;2023-01-01T06:58:26;100793.28;;;10.99;92.54
71424;BME280;59240;51.370;-0.486;2023-01-01T07:00:53;100796.75;;;10.99;93.84
71424;BME280;59240;51.370;-0.486;2023-01-01T07:03:20;100799.22;;;11.04;92.67
71424;BME280;59240;51.370;-0.486;2023-01-01T07:05:46;100801.03;;;11.02;92.97
71424;BME280;59240;51.370;-0.486;2023-01-01T07:08:13;100798.50;;;10.99;92.52
71424;BME280;59240;51.370;-0.486;2023-01-01T07:10:39;100827.00;;;11.05;93.89
71424;BME280;59240;51.370;-0.486;2023-01-01T07:13:06;100797.63;;;11.00;93.72
71424;BME280;59240;51.370;-0.486;2023-01-01T07:15:32;100787.22;;;10.98;94.58
71424;BME280;59240;51.370;-0.486;2023-01-01T07:17:59;100799.09;;;11.10;92.21
71424;BME280;59240;51.370;-0.486;2023-01-01T07:20:26;100772.59;;;10.92;93.22
71424;BME280;59240;51.370;-0.486;2023-01-01T07:22:52;100763.06;;;10.91;92.81
71424;BME280;59240;51.370;-0.486;2023-01-01T07:25:19;100793.97;;;11.07;90.33
71424;BME280;59240;51.370;-0.486;2023-01-01T07:27:46;100801.59;;;11.14;90.93
71424;BME280;59240;51.370;-0.486;2023-01-01T07:30:12;100777.63;;;11.00;91.26
71424;BME280;59240;51.370;-0.486;2023-01-01T07:32:39;100807.81;;;11.09;93.43
71424;BME280;59240;51.370;-0.486;2023-01-01T07:35:06;100810.31;;;11.13;92.73
71424;BME280;59240;51.370;-0.486;2023-01-01T07:37:32;100815.56;;;11.12;92.20
71424;BME280;59240;51.370;-0.486;2023-01-01T07:39:59;100798.34;;;11.05;95.29
71424;BME280;59240;51.370;-0.486;2023-01-01T07:42:25;100813.78;;;11.14;92.67
71424;BME280;59240;51.370;-0.486;2023-01-01T07:44:52;100808.72;;;11.08;92.18
71424;BME280;59240;51.370;-0.486;2023-01-01T07:47:23;100819.91;;;11.13;94.71
71424;BME280;59240;51.370;-0.486;2023-01-01T07:49:51;100823.41;;;11.12;93.62
71424;BME280;59240;51.370;-0.486;2023-01-01T07:52:18;100790.88;;;10.89;93.83
71424;BME280;59240;51.370;-0.486;2023-01-01T07:54:44;100827.91;;;11.05;91.71
71424;BME280;59240;51.370;-0.486;2023-01-01T07:57:11;100831.47;;;11.01;90.96
71424;BME280;59240;51.370;-0.486;2023-01-01T07:59:37;100846.28;;;10.98;91.95
71424;BME280;59240;51.370;-0.486;2023-01-01T08:02:04;100828.81;;;11.03;91.86
71424;BME280;59240;51.370;-0.486;2023-01-01T08:04:31;100815.91;;;10.98;90.91
71424;BME280;59240;51.370;-0.486;2023-01-01T08:06:57;100824.59;;;10.97;92.40
71424;BME280;59240;51.370;-0.486;2023-01-01T08:09:24;100842.56;;;11.09;93.49
71424;BME280;59240;51.370;-0.486;2023-01-01T08:11:50;100840.03;;;11.06;91.70
71424;BME280;59240;51.370;-0.486;2023-01-01T08:14:18;100828.00;;;11.01;90.56
71424;BME280;59240;51.370;-0.486;2023-01-01T08:16:45;100831.50;;;11.00;91.51
71424;BME280;59240;51.370;-0.486;2023-01-01T08:19:11;100834.09;;;11.00;93.21
71424;BME280;59240;51.370;-0.486;2023-01-01T08:21:38;100835.91;;;10.96;91.54
71424;BME280;59240;51.370;-0.486;2023-01-01T08:24:04;100848.03;;;10.99;91.63
71424;BME280;59240;51.370;-0.486;2023-01-01T08:26:33;100847.88;;;11.05;90.73
71424;BME280;59240;51.370;-0.486;2023-01-01T08:29:05;100855.69;;;11.05;95.76
71424;BME280;59240;51.370;-0.486;2023-01-01T08:31:32;100846.47;;;10.91;88.31
71424;BME280;59240;51.370;-0.486;2023-01-01T08:33:59;100875.56;;;11.10;90.92
71424;BME280;59240;51.370;-0.486;2023-01-01T08:36:25;100882.38;;;11.16;92.39
71424;BME280;59240;51.370;-0.486;2023-01-01T08:38:52;100878.16;;;11.12;91.70
71424;BME280;59240;51.370;-0.486;2023-01-01T08:41:18;100858.25;;;11.08;90.51
71424;BME280;59240;51.370;-0.486;2023-01-01T08:43:45;100827.44;;;10.86;89.32
71424;BME280;59240;51.370;-0.486;2023-01-01T08:46:11;100868.72;;;11.06;90.66
71424;BME280;59240;51.370;-0.486;2023-01-01T08:48:38;100885.88;;;11.15;90.51
71424;BME280;59240;51.370;-0.486;2023-01-01T08:51:05;100847.88;;;11.05;90.14
71424;BME280;59240;51.370;-0.486;2023-01-01T08:53:32;100871.97;;;11.16;89.92
71424;BME280;59240;51.370;-0.486;2023-01-01T08:56:03;100879.75;;;11.17;89.72
71424;BME280;59240;51.370;-0.486;2023-01-01T08:58:31;100882.25;;;11.22;89.10
71424;BME280;59240;51.370;-0.486;2023-01-01T09:00:57;100883.09;;;11.22;90.65
71424;BME280;59240;51.370;-0.486;2023-01-01T09:03:25;100888.28;;;11.24;89.20
71424;BME280;59240;51.370;-0.486;2023-01-01T09:05:52;100861.63;;;11.13;90.59
71424;BME280;59240;51.370;-0.486;2023-01-01T09:08:20;100878.56;;;11.31;89.70
71424;BME280;59240;51.370;-0.486;2023-01-01T09:10:47;100882.75;;;11.38;89.07
71424;BME280;59240;51.370;-0.486;2023-01-01T09:13:15;100873.09;;;11.41;89.65
71424;BME280;59240;51.370;-0.486;2023-01-01T09:15:42;100892.03;;;11.49;88.80
71424;BME280;59240;51.370;-0.486;2023-01-01T09:18:09;100885.09;;;11.48;89.15
71424;BME280;59240;51.370;-0.486;2023-01-01T09:20:37;100876.53;;;11.43;88.83
71424;BME280;59240;51.370;-0.486;2023-01-01T09:23:05;100879.94;;;11.45;89.16
71424;BME280;59240;51.370;-0.486;2023-01-01T09:25:33;100896.16;;;11.58;89.04
71424;BME280;59240;51.370;-0.486;2023-01-01T09:28:02;100903.91;;;11.63;89.09
71424;BME280;59240;51.370;-0.486;2023-01-01T09:30:29;100909.13;;;11.63;88.96
71424;BME280;59240;51.370;-0.486;2023-01-01T09:32:56;100923.78;;;11.68;88.60
71424;BME280;59240;51.370;-0.486;2023-01-01T09:35:22;100917.03;;;11.58;88.78
71424;BME280;59240;51.370;-0.486;2023-01-01T09:37:49;100916.09;;;11.62;86.00
71424;BME280;59240;51.370;-0.486;2023-01-01T09:43:30;100940.34;;;11.66;84.79
71424;BME280;59240;51.370;-0.486;2023-01-01T09:46:03;100952.44;;;11.70;87.09
71424;BME280;59240;51.370;-0.486;2023-01-01T09:48:40;100935.22;;;11.63;86.91
71424;BME280;59240;51.370;-0.486;2023-01-01T09:51:14;100947.22;;;11.70;87.70
71424;BME280;59240;51.370;-0.486;2023-01-01T09:54:26;100956.53;;;11.80;86.83
71424;BME280;59240;51.370;-0.486;2023-01-01T09:56:34;100953.88;;;11.83;87.34
71424;BME280;59240;51.370;-0.486;2023-01-01T09:59:01;100945.34;;;11.75;86.70
71424;BME280;59240;51.370;-0.486;2023-01-01T10:15:17;100981.84;;;12.14;88.66
71424;BME280;59240;51.370;-0.486;2023-01-01T10:17:47;100973.03;;;12.18;86.54
71424;BME280;59240;51.370;-0.486;2023-01-01T10:20:43;100980.78;;;12.21;87.15
71424;BME280;59240;51.370;-0.486;2023-01-01T10:23:20;100984.13;;;12.26;89.44
71424;BME280;59240;51.370;-0.486;2023-01-01T10:25:47;100968.63;;;12.20;86.27
71424;BME280;59240;51.370;-0.486;2023-01-01T10:28:21;100969.47;;;12.22;89.23
71424;BME280;59240;51.370;-0.486;2023-01-01T10:30:52;100979.72;;;12.29;86.96
71424;BME280;59240;51.370;-0.486;2023-01-01T10:33:24;100972.72;;;12.30;85.95
71424;BME280;59240;51.370;-0.486;2023-01-01T10:35:53;100965.69;;;12.32;86.23
71424;BME280;59240;51.370;-0.486;2023-01-01T10:38:24;100964.81;;;12.33;83.29
71424;BME280;59240;51.370;-0.486;2023-01-01T10:40:52;100959.50;;;12.36;85.87
71424;BME280;59240;51.370;-0.486;2023-01-01T10:43:21;100969.81;;;12.42;84.33
71424;BME280;59240;51.370;-0.486;2023-01-01T10:45:52;100981.88;;;12.46;86.29
71424;BME280;59240;51.370;-0.486;2023-01-01T10:48:21;100981.88;;;12.46;85.05
71424;BME280;59240;51.370;-0.486;2023-01-01T10:50:55;100978.34;;;12.47;87.58
71424;BME280;59240;51.370;-0.486;2023-01-01T11:01:02;100948.91;;;12.41;84.03
71424;BME280;59240;51.370;-0.486;2023-01-01T11:03:29;100966.03;;;12.52;83.07
71424;BME280;59240;51.370;-0.486;2023-01-01T11:08:37;100965.78;;;12.62;83.34
71424;BME280;59240;51.370;-0.486;2023-01-01T11:11:04;100942.50;;;12.52;83.28
71424;BME280;59240;51.370;-0.486;2023-01-01T11:13:32;100950.81;;;12.67;84.42
71424;BME280;59240;51.370;-0.486;2023-01-01T11:15:59;100933.47;;;12.64;83.78
71424;BME280;59240;51.370;-0.486;2023-01-01T11:18:29;100957.47;;;12.78;83.23
71424;BME280;59240;51.370;-0.486;2023-01-01T11:21:04;100948.84;;;12.75;79.94
71424;BME280;59240;51.370;-0.486;2023-01-01T11:23:37;100948.72;;;12.79;81.49
71424;BME280;59240;51.370;-0.486;2023-01-01T11:31:43;100901.34;;;12.60;83.29
71424;BME280;59240;51.370;-0.486;2023-01-01T11:37:25;100945.00;;;12.88;84.12
71424;BME280;59240;51.370;-0.486;2023-01-01T11:39:55;100916.69;;;12.73;81.60
71424;BME280;59240;51.370;-0.486;2023-01-01T11:42:25;100920.19;;;12.72;83.24
71424;BME280;59240;51.370;-0.486;2023-01-01T11:44:55;100945.88;;;12.87;84.08
71424;BME280;59240;51.370;-0.486;2023-01-01T11:47:24;100938.94;;;12.86;81.89
71424;BME280;59240;51.370;-0.486;2023-01-01T11:49:54;100931.41;;;12.75;82.83
71424;BME280;59240;51.370;-0.486;2023-01-01T11:52:36;100947.88;;;12.79;82.26
71424;BME280;59240;51.370;-0.486;2023-01-01T11:55:22;100934.00;;;12.77;81.34
71424;BME280;59240;51.370;-0.486;2023-01-01T11:57:58;100940.09;;;12.76;81.62
71424;BME280;59240;51.370;-0.486;2023-01-01T12:00:29;100940.84;;;12.81;84.04
71424;BME280;59240;51.370;-0.486;2023-01-01T12:03:00;100950.38;;;12.83;83.39
71424;BME280;59240;51.370;-0.486;2023-01-01T12:08:09;100930.47;;;12.78;82.58
71424;BME280;59240;51.370;-0.486;2023-01-01T12:10:45;100930.47;;;12.78;84.25
71424;BME280;59240;51.370;-0.486;2023-01-01T12:13:18;100913.88;;;12.79;82.57
71424;BME280;59240;51.370;-0.486;2023-01-01T12:16:21;100945.53;;;12.99;83.08
71424;BME280;59240;51.370;-0.486;2023-01-01T12:19:00;100916.31;;;12.85;78.05
71424;BME280;59240;51.370;-0.486;2023-01-01T12:21:28;100934.13;;;13.02;82.49
71424;BME280;59240;51.370;-0.486;2023-01-01T12:23:54;100928.03;;;13.01;82.53
71424;BME280;59240;51.370;-0.486;2023-01-01T12:26:24;100934.97;;;13.02;78.29
71424;BME280;59240;51.370;-0.486;2023-01-01T12:29:07;100925.28;;;13.06;82.73
71424;BME280;59240;51.370;-0.486;2023-01-01T12:31:55;100927.13;;;13.04;84.04
71424;BME280;59240;51.370;-0.486;2023-01-01T12:37:44;100930.59;;;13.04;78.77
71424;BME280;59240;51.370;-0.486;2023-01-01T12:45:52;100924.34;;;13.08;83.53
71424;BME280;59240;51.370;-0.486;2023-01-01T12:59:26;100921.47;;;13.18;82.04
71424;BME280;59240;51.370;-0.486;2023-01-01T13:01:56;100898.19;;;13.08;81.82
71424;BME280;59240;51.370;-0.486;2023-01-01T13:04:25;100912.72;;;13.17;81.46
71424;BME280;59240;51.370;-0.486;2023-01-01T13:06:55;100917.09;;;13.17;78.98
71424;BME280;59240;51.370;-0.486;2023-01-01T13:09:32;100910.03;;;13.22;81.80
71424;BME280;59240;51.370;-0.486;2023-01-01T13:12:21;100926.44;;;13.27;81.11
71424;BME280;59240;51.370;-0.486;2023-01-01T13:14:47;100913.34;;;13.27;81.18
71424;BME280;59240;51.370;-0.486;2023-01-01T13:17:25;100901.41;;;13.17;79.97
71424;BME280;59240;51.370;-0.486;2023-01-01T13:20:22;100909.94;;;13.25;83.28
71424;BME280;59240;51.370;-0.486;2023-01-01T13:22:50;100901.31;;;13.21;81.40
71424;BME280;59240;51.370;-0.486;2023-01-01T13:25:17;100903.09;;;13.21;80.45
71424;BME280;59240;51.370;-0.486;2023-01-01T13:33:24;100917.22;;;13.13;82.76
71424;BME280;59240;51.370;-0.486;2023-01-01T13:38:51;100908.66;;;13.08;78.93
71424;BME280;59240;51.370;-0.486;2023-01-01T13:44:10;100894.66;;;13.09;83.19
71424;BME280;59240;51.370;-0.486;2023-01-01T13:52:00;100889.44;;;13.09;80.32
71424;BME280;59240;51.370;-0.486;2023-01-01T14:02:32;100862.78;;;12.97;81.43
71424;BME280;59240;51.370;-0.486;2023-01-01T14:05:41;100887.72;;;13.08;82.71
71424;BME280;59240;51.370;-0.486;2023-01-01T14:08:33;100879.06;;;13.06;83.94
71424;BME280;59240;51.370;-0.486;2023-01-01T14:11:01;100880.72;;;13.09;80.12
71424;BME280;59240;51.370;-0.486;2023-01-01T14:13:30;100883.44;;;13.06;79.53
71424;BME280;59240;51.370;-0.486;2023-01-01T14:16:06;100875.66;;;13.04;80.46
71424;BME280;59240;51.370;-0.486;2023-01-01T14:18:40;100871.31;;;13.03;81.93
71424;BME280;59240;51.370;-0.486;2023-01-01T14:21:13;100856.72;;;12.96;80.27
71424;BME280;59240;51.370;-0.486;2023-01-01T14:23:47;100853.00;;;13.03;82.26
71424;BME280;59240;51.370;-0.486;2023-01-01T14:26:17;100866.97;;;13.02;80.62
71424;BME280;59240;51.370;-0.486;2023-01-01T14:28:44;100853.09;;;13.00;81.11
71424;BME280;59240;51.370;-0.486;2023-01-01T14:31:16;100840.22;;;12.94;82.62
71424;BME280;59240;51.370;-0.486;2023-01-01T14:33:44;100855.72;;;13.00;79.37
71424;BME280;59240;51.370;-0.486;2023-01-01T14:36:18;100853.97;;;13.01;82.10
71424;BME280;59240;51.370;-0.486;2023-01-01T14:38:48;100830.75;;;12.90;80.49
71424;BME280;59240;51.370;-0.486;2023-01-01T14:41:30;100842.84;;;12.94;79.55
71424;BME280;59240;51.370;-0.486;2023-01-01T14:44:06;100837.72;;;12.90;82.85
71424;BME280;59240;51.370;-0.486;2023-01-01T14:46:39;100848.19;;;12.90;80.72
71424;BME280;59240;51.370;-0.486;2023-01-01T14:49:09;100844.66;;;12.92;81.01